sensor_id;sensor_type;location;lat;lon;timestamp;P1;durP1;ratioP1;P2;durP2;ratioP2
71042;SDS011;58696;52.134;5.500;2023-06-26T00:03:16;13.30;;;10.05;;
71042;SDS011;58696;52.134;5.500;2023-06-26T00:05:45;13.50;;;9.43;;
71042;SDS011;58696;52.134;5.500;2023-06-26T00:08:11;11.52;;;9.80;;
71042;SDS011;58696;52.134;5.500;2023-06-26T00:10:39;10.80;;;9.32;;
71042;SDS011;58696;52.134;5.500;2023-06-26T00:13:06;13.00;;;10.05;;
71042;SDS011;58696;52.134;5.500;2023-06-26T00:15:43;12.35;;;9.43;;
71042;SDS011;58696;52.134;5.500;2023-06-26T00:18:14;12.48;;;10.43;;
71042;SDS011;58696;52.134;5.500;2023-06-26T00:20:43;10.50;;;9.05;;
71042;SDS011;58696;52.134;5.500;2023-06-26T00:23:10;11.60;;;8.85;;
71042;SDS011;58696;52.134;5.500;2023-06-26T00:25:40;14.48;;;9.70;;
71042;SDS011;58696;52.134;5.500;2023-06-26T00:28:09;12.82;;;9.23;;
71042;SDS011;58696;52.134;5.500;2023-06-26T00:30:36;13.35;;;8.98;;
71042;SDS011;58696;52.134;5.500;2023-06-26T00:33:05;11.35;;;8.73;;
71042;SDS011;58696;52.134;5.500;2023-06-26T00:35:31;12.18;;;9.63;;
71042;SDS011;58696;52.134;5.500;2023-06-26T00:38:01;10.25;;;8.65;;
71042;SDS011;58696;52.134;5.500;2023-06-26T00:40:28;12.67;;;9.53;;
71042;SDS011;58696;52.134;5.500;2023-06-26T00:42:56;10.38;;;9.10;;
71042;SDS011;58696;52.134;5.500;2023-06-26T00:45:25;15.43;;;9.63;;
71042;SDS011;58696;52.134;5.500;2023-06-26T00:48:07;9.13;;;8.23;;
71042;SDS011;58696;52.134;5.500;2023-06-26T00:50:40;9.73;;;8.65;;
71042;SDS011;58696;52.134;5.500;2023-06-26T00:53:13;10.07;;;8.90;;
71042;SDS011;58696;52.134;5.500;2023-06-26T00:55:43;9.65;;;8.63;;
71042;SDS011;58696;52.134;5.500;2023-06-26T00:58:10;12.23;;;8.02;;
71042;SDS011;58696;52.134;5.500;2023-06-26T01:00:39;9.55;;;7.78;;
71042;SDS011;58696;52.134;5.500;2023-06-26T01:03:13;8.88;;;7.97;;
71042;SDS011;58696;52.134;5.500;2023-06-26T01:05:40;12.50;;;8.30;;
71042;SDS011;58696;52.134;5.500;2023-06-26T01:08:12;9.07;;;7.82;;
71042;SDS011;58696;52.134;5.500;2023-06-26T01:10:39;11.48;;;7.65;;
71042;SDS011;58696;52.134;5.500;2023-06-26T01:13:06;12.80;;;7.78;;
71042;SDS011;58696;52.134;5.500;2023-06-26T01:15:34;8.85;;;7.45;;
71042;SDS011;58696;52.134;5.500;2023-06-26T01:18:03;10.00;;;7.63;;
71042;SDS011;58696;52.134;5.500;2023-06-26T01:20:36;7.80;;;7.00;;
71042;SDS011;58696;52.134;5.500;2023-06-26T01:23:14;9.05;;;7.07;;
71042;SDS011;58696;52.134;5.500;2023-06-26T01:28:35;7.35;;;6.65;;
71042;SDS011;58696;52.134;5.500;2023-06-26T01:31:07;9.10;;;7.47;;
71042;SDS011;58696;52.134;5.500;2023-06-26T01:33:35;7.82;;;6.25;;
71042;SDS011;58696;52.134;5.500;2023-06-26T01:36:05;9.02;;;6.50;;
71042;SDS011;58696;52.134;5.500;2023-06-26T01:38:37;8.57;;;6.47;;
71042;SDS011;58696;52.134;5.500;2023-06-26T01:41:12;7.20;;;6.25;;
71042;SDS011;58696;52.134;5.500;2023-06-26T01:52:21;8.32;;;6.88;;
71042;SDS011;58696;52.134;5.500;2023-06-26T01:55:03;6.32;;;5.72;;
71042;SDS011;58696;52.134;5.500;2023-06-26T01:57:48;7.28;;;6.18;;
71042;SDS011;58696;52.134;5.500;2023-06-26T02:00:18;6.50;;;5.82;;
71042;SDS011;58696;52.134;5.500;2023-06-26T02:02:47;7.82;;;5.97;;
71042;SDS011;58696;52.134;5.500;2023-06-26T02:05:14;7.23;;;5.80;;
71042;SDS011;58696;52.134;5.500;2023-06-26T02:07:41;9.40;;;6.00;;
71042;SDS011;58696;52.134;5.500;2023-06-26T02:10:08;5.68;;;5.18;;
71042;SDS011;58696;52.134;5.500;2023-06-26T02:12:35;7.13;;;5.50;;
71042;SDS011;58696;52.134;5.500;2023-06-26T02:15:04;9.10;;;5.35;;
71042;SDS011;58696;52.134;5.500;2023-06-26T02:17:31;9.52;;;5.63;;
71042;SDS011;58696;52.134;5.500;2023-06-26T02:19:58;9.43;;;5.32;;
71042;SDS011;58696;52.134;5.500;2023-06-26T02:22:25;6.93;;;4.95;;
71042;SDS011;58696;52.134;5.500;2023-06-26T02:24:54;7.63;;;5.10;;
71042;SDS011;58696;52.134;5.500;2023-06-26T02:27:22;7.75;;;4.63;;
71042;SDS011;58696;52.134;5.500;2023-06-26T02:29:48;5.60;;;4.35;;
71042;SDS011;58696;52.134;5.500;2023-06-26T02:32:17;7.47;;;4.60;;
71042;SDS011;58696;52.134;5.500;2023-06-26T02:34:46;6.07;;;4.30;;
71042;SDS011;58696;52.134;5.500;2023-06-26T02:37:15;7.95;;;4.38;;
71042;SDS011;58696;52.134;5.500;2023-06-26T02:39:42;12.43;;;4.10;;
71042;SDS011;58696;52.134;5.500;2023-06-26T02:42:11;7.15;;;4.05;;
71042;SDS011;58696;52.134;5.500;2023-06-26T02:44:41;10.25;;;4.43;;
71042;SDS011;58696;52.134;5.500;2023-06-26T02:47:07;7.10;;;3.70;;
71042;SDS011;58696;52.134;5.500;2023-06-26T02:49:35;7.65;;;4.65;;
71042;SDS011;58696;52.134;5.500;2023-06-26T02:52:04;9.70;;;3.95;;
71042;SDS011;58696;52.134;5.500;2023-06-26T02:54:31;6.53;;;3.88;;
71042;SDS011;58696;52.134;5.500;2023-06-26T02:57:03;7.45;;;4.00;;
71042;SDS011;58696;52.134;5.500;2023-06-26T02:59:30;6.97;;;4.05;;
71042;SDS011;58696;52.134;5.500;2023-06-26T03:01:57;9.23;;;4.17;;
71042;SDS011;58696;52.134;5.500;2023-06-26T03:04:24;8.47;;;4.17;;
71042;SDS011;58696;52.134;5.500;2023-06-26T03:06:53;9.88;;;3.95;;
71042;SDS011;58696;52.134;5.500;2023-06-26T03:09:21;8.82;;;3.83;;
71042;SDS011;58696;52.134;5.500;2023-06-26T03:11:48;8.10;;;4.20;;
71042;SDS011;58696;52.134;5.500;2023-06-26T03:14:16;10.00;;;3.75;;
71042;SDS011;58696;52.134;5.500;2023-06-26T03:16:42;5.70;;;3.45;;
71042;SDS011;58696;52.134;5.500;2023-06-26T03:19:11;10.80;;;4.28;;
71042;SDS011;58696;52.134;5.500;2023-06-26T03:21:38;7.88;;;3.85;;
71042;SDS011;58696;52.134;5.500;2023-06-26T03:24:07;6.55;;;3.50;;
71042;SDS011;58696;52.134;5.500;2023-06-26T03:26:34;8.35;;;3.63;;
71042;SDS011;58696;52.134;5.500;2023-06-26T03:29:03;9.60;;;3.90;;
71042;SDS011;58696;52.134;5.500;2023-06-26T03:31:30;10.27;;;3.67;;
71042;SDS011;58696;52.134;5.500;2023-06-26T03:33:57;13.68;;;4.63;;
71042;SDS011;58696;52.134;5.500;2023-06-26T03:36:26;10.77;;;4.03;;
71042;SDS011;58696;52.134;5.500;2023-06-26T03:38:55;8.27;;;3.97;;
71042;SDS011;58696;52.134;5.500;2023-06-26T03:41:23;11.52;;;4.25;;
71042;SDS011;58696;52.134;5.500;2023-06-26T03:43:52;9.48;;;4.43;;
71042;SDS011;58696;52.134;5.500;2023-06-26T03:46:19;6.83;;;3.80;;
71042;SDS011;58696;52.134;5.500;2023-06-26T03:48:50;9.25;;;3.90;;
71042;SDS011;58696;52.134;5.500;2023-06-26T03:51:17;9.57;;;4.25;;
71042;SDS011;58696;52.134;5.500;2023-06-26T03:53:46;12.15;;;3.90;;
71042;SDS011;58696;52.134;5.500;2023-06-26T03:56:13;10.73;;;3.95;;
71042;SDS011;58696;52.134;5.500;2023-06-26T03:58:40;15.90;;;4.25;;
71042;SDS011;58696;52.134;5.500;2023-06-26T04:01:06;12.13;;;4.18;;
71042;SDS011;58696;52.134;5.500;2023-06-26T04:03:40;12.25;;;3.80;;
71042;SDS011;58696;52.134;5.500;2023-06-26T04:06:07;8.88;;;3.78;;
71042;SDS011;58696;52.134;5.500;2023-06-26T04:08:33;17.58;;;4.75;;
71042;SDS011;58696;52.134;5.500;2023-06-26T04:11:03;13.25;;;3.75;;
71042;SDS011;58696;52.134;5.500;2023-06-26T04:13:30;9.75;;;3.90;;
71042;SDS011;58696;52.134;5.500;2023-06-26T04:15:57;17.17;;;5.18;;
71042;SDS011;58696;52.134;5.500;2023-06-26T04:18:23;21.65;;;4.82;;
71042;SDS011;58696;52.134;5.500;2023-06-26T04:23:38;17.63;;;4.80;;
71042;SDS011;58696;52.134;5.500;2023-06-26T04:26:06;11.60;;;4.20;;
71042;SDS011;58696;52.134;5.500;2023-06-26T04:28:35;11.60;;;4.18;;
71042;SDS011;58696;52.134;5.500;2023-06-26T04:31:04;8.32;;;3.90;;
71042;SDS011;58696;52.134;5.500;2023-06-26T04:33:31;13.83;;;3.93;;
71042;SDS011;58696;52.134;5.500;2023-06-26T04:35:59;8.73;;;3.80;;
71042;SDS011;58696;52.134;5.500;2023-06-26T04:38:33;11.25;;;3.72;;
71042;SDS011;58696;52.134;5.500;2023-06-26T04:41:02;10.40;;;4.10;;
71042;SDS011;58696;52.134;5.500;2023-06-26T04:43:29;12.52;;;3.88;;
71042;SDS011;58696;52.134;5.500;2023-06-26T04:45:56;13.95;;;4.38;;
71042;SDS011;58696;52.134;5.500;2023-06-26T04:48:25;9.98;;;3.80;;
71042;SDS011;58696;52.134;5.500;2023-06-26T04:50:54;11.75;;;3.78;;
71042;SDS011;58696;52.134;5.500;2023-06-26T04:53:22;10.52;;;4.18;;
71042;SDS011;58696;52.134;5.500;2023-06-26T04:55:49;10.02;;;3.92;;
71042;SDS011;58696;52.134;5.500;2023-06-26T05:00:46;13.95;;;4.22;;
71042;SDS011;58696;52.134;5.500;2023-06-26T05:03:13;9.00;;;4.15;;
71042;SDS011;58696;52.134;5.500;2023-06-26T05:05:40;10.10;;;3.55;;
71042;SDS011;58696;52.134;5.500;2023-06-26T05:10:40;8.65;;;3.38;;
71042;SDS011;58696;52.134;5.500;2023-06-26T05:13:07;12.80;;;4.17;;
71042;SDS011;58696;52.134;5.500;2023-06-26T05:15:41;12.20;;;4.45;;
71042;SDS011;58696;52.134;5.500;2023-06-26T05:18:13;8.68;;;3.78;;
71042;SDS011;58696;52.134;5.500;2023-06-26T05:20:40;7.75;;;3.45;;
71042;SDS011;58696;52.134;5.500;2023-06-26T05:23:14;6.75;;;4.03;;
71042;SDS011;58696;52.134;5.500;2023-06-26T05:25:42;12.10;;;3.20;;
71042;SDS011;58696;52.134;5.500;2023-06-26T05:28:09;8.60;;;3.05;;
71042;SDS011;58696;52.134;5.500;2023-06-26T05:30:38;9.60;;;3.60;;
71042;SDS011;58696;52.134;5.500;2023-06-26T05:33:05;10.30;;;3.15;;
71042;SDS011;58696;52.134;5.500;2023-06-26T05:35:39;11.10;;;3.38;;
71042;SDS011;58696;52.134;5.500;2023-06-26T05:38:09;6.85;;;3.08;;
71042;SDS011;58696;52.134;5.500;2023-06-26T05:40:41;8.00;;;3.22;;
71042;SDS011;58696;52.134;5.500;2023-06-26T05:43:11;7.70;;;3.20;;
71042;SDS011;58696;52.134;5.500;2023-06-26T05:45:40;5.90;;;3.30;;
71042;SDS011;58696;52.134;5.500;2023-06-26T05:48:06;8.02;;;3.63;;
71042;SDS011;58696;52.134;5.500;2023-06-26T05:50:36;5.97;;;2.97;;
71042;SDS011;58696;52.134;5.500;2023-06-26T05:53:03;5.80;;;2.50;;
71042;SDS011;58696;52.134;5.500;2023-06-26T05:55:31;6.25;;;2.55;;
71042;SDS011;58696;52.134;5.500;2023-06-26T05:58:01;4.85;;;2.38;;
71042;SDS011;58696;52.134;5.500;2023-06-26T06:00:29;4.10;;;2.22;;
71042;SDS011;58696;52.134;5.500;2023-06-26T06:02:58;9.60;;;2.50;;
71042;SDS011;58696;52.134;5.500;2023-06-26T06:05:29;4.85;;;2.47;;
71042;SDS011;58696;52.134;5.500;2023-06-26T06:07:55;5.15;;;2.42;;
71042;SDS011;58696;52.134;5.500;2023-06-26T06:10:24;4.43;;;1.80;;
71042;SDS011;58696;52.134;5.500;2023-06-26T06:12:53;3.55;;;2.30;;
71042;SDS011;58696;52.134;5.500;2023-06-26T06:15:20;4.13;;;2.25;;
71042;SDS011;58696;52.134;5.500;2023-06-26T06:17:49;4.13;;;1.73;;
71042;SDS011;58696;52.134;5.500;2023-06-26T06:22:48;3.03;;;1.92;;
71042;SDS011;58696;52.134;5.500;2023-06-26T06:25:15;2.45;;;1.70;;
71042;SDS011;58696;52.134;5.500;2023-06-26T06:27:44;6.70;;;2.28;;
71042;SDS011;58696;52.134;5.500;2023-06-26T06:30:11;6.63;;;1.90;;
71042;SDS011;58696;52.134;5.500;2023-06-26T06:32:38;2.85;;;1.67;;
71042;SDS011;58696;52.134;5.500;2023-06-26T06:35:06;3.72;;;1.75;;
71042;SDS011;58696;52.134;5.500;2023-06-26T06:37:37;6.95;;;2.30;;
71042;SDS011;58696;52.134;5.500;2023-06-26T06:40:05;4.65;;;1.85;;
71042;SDS011;58696;52.134;5.500;2023-06-26T06:42:32;3.60;;;2.25;;
71042;SDS011;58696;52.134;5.500;2023-06-26T06:45:02;7.70;;;2.00;;
71042;SDS011;58696;52.134;5.500;2023-06-26T06:47:31;5.53;;;2.28;;
71042;SDS011;58696;52.134;5.500;2023-06-26T06:50:01;5.30;;;2.22;;
71042;SDS011;58696;52.134;5.500;2023-06-26T06:52:42;4.22;;;2.30;;
71042;SDS011;58696;52.134;5.500;2023-06-26T06:55:10;3.70;;;2.00;;
71042;SDS011;58696;52.134;5.500;2023-06-26T06:57:38;4.05;;;1.95;;
71042;SDS011;58696;52.134;5.500;2023-06-26T07:00:09;4.30;;;1.85;;
71042;SDS011;58696;52.134;5.500;2023-06-26T07:02:43;5.15;;;2.08;;
71042;SDS011;58696;52.134;5.500;2023-06-26T07:05:11;7.35;;;2.03;;
71042;SDS011;58696;52.134;5.500;2023-06-26T07:07:38;6.13;;;1.77;;
71042;SDS011;58696;52.134;5.500;2023-06-26T07:10:10;2.53;;;1.90;;
71042;SDS011;58696;52.134;5.500;2023-06-26T07:12:39;4.95;;;2.33;;
71042;SDS011;58696;52.134;5.500;2023-06-26T07:15:13;5.13;;;2.08;;
71042;SDS011;58696;52.134;5.500;2023-06-26T07:17:40;2.72;;;1.90;;
71042;SDS011;58696;52.134;5.500;2023-06-26T07:20:06;8.35;;;2.22;;
71042;SDS011;58696;52.134;5.500;2023-06-26T07:22:35;6.32;;;2.00;;
71042;SDS011;58696;52.134;5.500;2023-06-26T07:25:02;5.22;;;2.20;;
71042;SDS011;58696;52.134;5.500;2023-06-26T07:27:31;5.25;;;2.10;;
71042;SDS011;58696;52.134;5.500;2023-06-26T07:30:02;4.90;;;1.92;;
71042;SDS011;58696;52.134;5.500;2023-06-26T07:32:29;3.08;;;1.95;;
71042;SDS011;58696;52.134;5.500;2023-06-26T07:35:01;5.00;;;2.08;;
71042;SDS011;58696;52.134;5.500;2023-06-26T07:37:30;4.10;;;2.13;;
71042;SDS011;58696;52.134;5.500;2023-06-26T07:39:59;4.93;;;2.60;;
71042;SDS011;58696;52.134;5.500;2023-06-26T07:42:30;5.43;;;2.50;;
71042;SDS011;58696;52.134;5.500;2023-06-26T07:44:56;8.13;;;2.35;;
71042;SDS011;58696;52.134;5.500;2023-06-26T07:47:23;7.00;;;3.30;;
71042;SDS011;58696;52.134;5.500;2023-06-26T07:49:51;8.10;;;2.33;;
71042;SDS011;58696;52.134;5.500;2023-06-26T07:52:18;5.35;;;2.28;;
71042;SDS011;58696;52.134;5.500;2023-06-26T07:54:50;6.03;;;2.38;;
71042;SDS011;58696;52.134;5.500;2023-06-26T07:57:18;6.13;;;2.22;;
71042;SDS011;58696;52.134;5.500;2023-06-26T07:59:50;3.30;;;2.05;;
71042;SDS011;58696;52.134;5.500;2023-06-26T08:02:19;4.85;;;2.10;;
71042;SDS011;58696;52.134;5.500;2023-06-26T08:04:46;3.53;;;2.03;;
71042;SDS011;58696;52.134;5.500;2023-06-26T08:07:16;5.05;;;2.40;;
71042;SDS011;58696;52.134;5.500;2023-06-26T08:09:47;10.30;;;2.88;;
71042;SDS011;58696;52.134;5.500;2023-06-26T08:12:16;4.53;;;2.50;;
71042;SDS011;58696;52.134;5.500;2023-06-26T08:14:45;6.38;;;2.42;;
71042;SDS011;58696;52.134;5.500;2023-06-26T08:17:13;4.65;;;2.22;;
71042;SDS011;58696;52.134;5.500;2023-06-26T08:19:40;4.25;;;2.80;;
71042;SDS011;58696;52.134;5.500;2023-06-26T08:22:09;5.28;;;2.40;;
71042;SDS011;58696;52.134;5.500;2023-06-26T08:24:40;6.50;;;2.20;;
71042;SDS011;58696;52.134;5.500;2023-06-26T08:27:08;3.40;;;2.10;;
71042;SDS011;58696;52.134;5.500;2023-06-26T08:29:38;5.25;;;2.10;;
71042;SDS011;58696;52.134;5.500;2023-06-26T08:32:06;4.07;;;1.95;;
71042;SDS011;58696;52.134;5.500;2023-06-26T08:34:35;7.97;;;2.45;;
71042;SDS011;58696;52.134;5.500;2023-06-26T08:37:02;3.72;;;2.00;;
71042;SDS011;58696;52.134;5.500;2023-06-26T08:39:30;4.50;;;2.25;;
71042;SDS011;58696;52.134;5.500;2023-06-26T08:41:57;5.65;;;2.25;;
71042;SDS011;58696;52.134;5.500;2023-06-26T08:44:23;8.15;;;2.00;;
71042;SDS011;58696;52.134;5.500;2023-06-26T08:46:55;7.53;;;2.00;;
71042;SDS011;58696;52.134;5.500;2023-06-26T08:49:25;8.45;;;1.70;;
71042;SDS011;58696;52.134;5.500;2023-06-26T08:52:06;8.45;;;1.73;;
71042;SDS011;58696;52.134;5.500;2023-06-26T08:54:52;5.10;;;1.40;;
71042;SDS011;58696;52.134;5.500;2023-06-26T08:57:27;5.07;;;1.60;;
71042;SDS011;58696;52.134;5.500;2023-06-26T08:59:59;2.50;;;1.17;;
71042;SDS011;58696;52.134;5.500;2023-06-26T09:02:26;9.10;;;1.45;;
71042;SDS011;58696;52.134;5.500;2023-06-26T09:04:56;3.00;;;1.27;;
71042;SDS011;58696;52.134;5.500;2023-06-26T09:07:23;6.97;;;1.67;;
71042;SDS011;58696;52.134;5.500;2023-06-26T09:09:56;5.88;;;1.45;;
71042;SDS011;58696;52.134;5.500;2023-06-26T09:12:25;8.27;;;1.25;;
71042;SDS011;58696;52.134;5.500;2023-06-26T09:14:54;10.52;;;1.50;;
71042;SDS011;58696;52.134;5.500;2023-06-26T09:17:25;14.65;;;2.08;;
71042;SDS011;58696;52.134;5.500;2023-06-26T09:19:55;3.53;;;1.30;;
71042;SDS011;58696;52.134;5.500;2023-06-26T09:22:25;8.70;;;1.45;;
71042;SDS011;58696;52.134;5.500;2023-06-26T09:24:52;2.97;;;1.27;;
71042;SDS011;58696;52.134;5.500;2023-06-26T09:27:21;9.32;;;1.67;;
71042;SDS011;58696;52.134;5.500;2023-06-26T09:29:48;2.95;;;1.20;;
71042;SDS011;58696;52.134;5.500;2023-06-26T09:32:16;3.75;;;1.35;;
71042;SDS011;58696;52.134;5.500;2023-06-26T09:34:45;5.68;;;1.45;;
71042;SDS011;58696;52.134;5.500;2023-06-26T09:37:12;4.53;;;1.20;;
71042;SDS011;58696;52.134;5.500;2023-06-26T09:39:42;4.03;;;1.20;;
71042;SDS011;58696;52.134;5.500;2023-06-26T09:42:14;8.15;;;1.25;;
71042;SDS011;58696;52.134;5.500;2023-06-26T09:44:44;1.85;;;1.25;;
71042;SDS011;58696;52.134;5.500;2023-06-26T09:47:23;2.13;;;1.20;;
71042;SDS011;58696;52.134;5.500;2023-06-26T09:49:51;6.47;;;1.63;;
71042;SDS011;58696;52.134;5.500;2023-06-26T09:52:18;6.55;;;1.67;;
71042;SDS011;58696;52.134;5.500;2023-06-26T09:54:48;4.63;;;1.42;;
71042;SDS011;58696;52.134;5.500;2023-06-26T09:57:18;2.80;;;1.48;;
71042;SDS011;58696;52.134;5.500;2023-06-26T09:59:48;6.50;;;1.20;;
71042;SDS011;58696;52.134;5.500;2023-06-26T10:02:15;2.65;;;1.23;;
71042;SDS011;58696;52.134;5.500;2023-06-26T10:04:44;6.90;;;1.38;;
71042;SDS011;58696;52.134;5.500;2023-06-26T10:09:46;2.45;;;1.23;;
71042;SDS011;58696;52.134;5.500;2023-06-26T10:12:19;5.90;;;1.30;;
71042;SDS011;58696;52.134;5.500;2023-06-26T10:14:52;2.58;;;1.30;;
71042;SDS011;58696;52.134;5.500;2023-06-26T10:17:24;6.55;;;1.70;;
71042;SDS011;58696;52.134;5.500;2023-06-26T10:19:55;6.68;;;1.33;;
71042;SDS011;58696;52.134;5.500;2023-06-26T10:22:31;3.80;;;1.10;;
71042;SDS011;58696;52.134;5.500;2023-06-26T10:25:01;7.72;;;2.20;;
71042;SDS011;58696;52.134;5.500;2023-06-26T10:27:35;8.30;;;1.88;;
71042;SDS011;58696;52.134;5.500;2023-06-26T10:30:06;10.00;;;2.50;;
71042;SDS011;58696;52.134;5.500;2023-06-26T10:32:38;2.53;;;0.98;;
71042;SDS011;58696;52.134;5.500;2023-06-26T10:35:06;4.13;;;1.63;;
71042;SDS011;58696;52.134;5.500;2023-06-26T10:37:42;3.70;;;1.20;;
71042;SDS011;58696;52.134;5.500;2023-06-26T10:40:10;3.40;;;1.25;;
71042;SDS011;58696;52.134;5.500;2023-06-26T10:42:43;4.13;;;1.27;;
71042;SDS011;58696;52.134;5.500;2023-06-26T10:45:13;4.70;;;1.70;;
71042;SDS011;58696;52.134;5.500;2023-06-26T10:47:47;4.10;;;1.10;;
71042;SDS011;58696;52.134;5.500;2023-06-26T10:55:49;5.80;;;1.17;;
71042;SDS011;58696;52.134;5.500;2023-06-26T11:03:38;4.82;;;1.30;;
71042;SDS011;58696;52.134;5.500;2023-06-26T11:06:09;3.03;;;1.10;;
71042;SDS011;58696;52.134;5.500;2023-06-26T11:08:46;3.20;;;1.10;;
71042;SDS011;58696;52.134;5.500;2023-06-26T11:11:16;9.15;;;1.88;;
71042;SDS011;58696;52.134;5.500;2023-06-26T11:13:48;6.85;;;1.10;;
71042;SDS011;58696;52.134;5.500;2023-06-26T11:16:15;5.65;;;1.40;;
71042;SDS011;58696;52.134;5.500;2023-06-26T11:18:48;1.67;;;1.00;;
71042;SDS011;58696;52.134;5.500;2023-06-26T11:21:17;4.13;;;1.23;;
71042;SDS011;58696;52.134;5.500;2023-06-26T11:23:52;2.83;;;1.00;;
71042;SDS011;58696;52.134;5.500;2023-06-26T11:26:24;4.25;;;1.42;;
71042;SDS011;58696;52.134;5.500;2023-06-26T11:28:57;3.35;;;1.40;;
71042;SDS011;58696;52.134;5.500;2023-06-26T11:31:27;1.25;;;0.93;;
71042;SDS011;58696;52.134;5.500;2023-06-26T11:34:01;2.75;;;1.33;;
71042;SDS011;58696;52.134;5.500;2023-06-26T11:39:05;4.72;;;1.02;;
71042;SDS011;58696;52.134;5.500;2023-06-26T11:41:36;1.73;;;0.98;;
71042;SDS011;58696;52.134;5.500;2023-06-26T11:44:07;4.28;;;1.10;;
71042;SDS011;58696;52.134;5.500;2023-06-26T11:46:39;3.65;;;1.10;;
71042;SDS011;58696;52.134;5.500;2023-06-26T11:49:08;9.77;;;1.20;;
71042;SDS011;58696;52.134;5.500;2023-06-26T11:51:37;5.82;;;1.10;;
71042;SDS011;58696;52.134;5.500;2023-06-26T11:54:06;2.08;;;1.02;;
71042;SDS011;58696;52.134;5.500;2023-06-26T11:56:35;3.90;;;1.20;;
71042;SDS011;58696;52.134;5.500;2023-06-26T11:59:03;2.83;;;1.08;;
71042;SDS011;58696;52.134;5.500;2023-06-26T12:01:43;4.97;;;1.17;;
71042;SDS011;58696;52.134;5.500;2023-06-26T12:04:16;2.35;;;1.10;;
71042;SDS011;58696;52.134;5.500;2023-06-26T12:06:46;2.95;;;1.27;;
71042;SDS011;58696;52.134;5.500;2023-06-26T12:09:18;1.95;;;0.80;;
71042;SDS011;58696;52.134;5.500;2023-06-26T12:11:49;24.50;;;1.88;;
71042;SDS011;58696;52.134;5.500;2023-06-26T12:14:22;5.35;;;1.40;;
71042;SDS011;58696;52.134;5.500;2023-06-26T12:16:54;2.38;;;1.08;;
71042;SDS011;58696;52.134;5.500;2023-06-26T12:19:26;3.30;;;0.88;;
71042;SDS011;58696;52.134;5.500;2023-06-26T12:21:56;3.47;;;0.98;;
71042;SDS011;58696;52.134;5.500;2023-06-26T12:24:25;2.53;;;0.82;;
71042;SDS011;58696;52.134;5.500;2023-06-26T12:26:54;2.00;;;0.80;;
71042;SDS011;58696;52.134;5.500;2023-06-26T12:29:31;4.72;;;1.33;;
71042;SDS011;58696;52.134;5.500;2023-06-26T12:32:22;2.65;;;0.70;;
71042;SDS011;58696;52.134;5.500;2023-06-26T12:34:55;2.08;;;0.82;;
71042;SDS011;58696;52.134;5.500;2023-06-26T12:37:23;2.00;;;0.90;;
71042;SDS011;58696;52.134;5.500;2023-06-26T12:39:53;3.00;;;0.88;;
71042;SDS011;58696;52.134;5.500;2023-06-26T12:42:24;1.50;;;0.90;;
71042;SDS011;58696;52.134;5.500;2023-06-26T12:44:54;1.00;;;0.70;;
71042;SDS011;58696;52.134;5.500;2023-06-26T12:47:23;3.70;;;1.20;;
71042;SDS011;58696;52.134;5.500;2023-06-26T12:49:57;4.95;;;1.00;;
71042;SDS011;58696;52.134;5.500;2023-06-26T12:52:24;1.98;;;1.10;;
71042;SDS011;58696;52.134;5.500;2023-06-26T12:54:52;3.38;;;0.93;;
71042;SDS011;58696;52.134;5.500;2023-06-26T12:57:20;2.25;;;1.00;;
71042;SDS011;58696;52.134;5.500;2023-06-26T12:59:46;4.72;;;1.17;;
71042;SDS011;58696;52.134;5.500;2023-06-26T13:02:15;2.08;;;0.88;;
71042;SDS011;58696;52.134;5.500;2023-06-26T13:04:45;2.20;;;1.17;;
71042;SDS011;58696;52.134;5.500;2023-06-26T13:07:13;1.60;;;0.90;;
71042;SDS011;58696;52.134;5.500;2023-06-26T13:09:40;2.47;;;0.90;;
71042;SDS011;58696;52.134;5.500;2023-06-26T13:12:09;1.23;;;1.02;;
71042;SDS011;58696;52.134;5.500;2023-06-26T13:14:38;2.75;;;1.00;;
71042;SDS011;58696;52.134;5.500;2023-06-26T13:17:06;7.97;;;0.95;;
71042;SDS011;58696;52.134;5.500;2023-06-26T13:19:35;3.42;;;1.20;;
71042;SDS011;58696;52.134;5.500;2023-06-26T13:22:05;2.30;;;1.25;;
71042;SDS011;58696;52.134;5.500;2023-06-26T13:24:34;1.67;;;0.70;;
71042;SDS011;58696;52.134;5.500;2023-06-26T13:27:01;3.65;;;1.50;;
71042;SDS011;58696;52.134;5.500;2023-06-26T13:29:31;0.90;;;0.85;;
71042;SDS011;58696;52.134;5.500;2023-06-26T13:32:00;1.05;;;0.80;;
71042;SDS011;58696;52.134;5.500;2023-06-26T13:34:30;3.33;;;0.90;;
71042;SDS011;58696;52.134;5.500;2023-06-26T13:36:58;3.85;;;0.95;;
71042;SDS011;58696;52.134;5.500;2023-06-26T13:39:28;1.10;;;0.82;;
71042;SDS011;58696;52.134;5.500;2023-06-26T13:41:57;2.58;;;1.20;;
71042;SDS011;58696;52.134;5.500;2023-06-26T13:44:29;2.33;;;0.90;;
71042;SDS011;58696;52.134;5.500;2023-06-26T13:47:12;6.03;;;0.98;;
71042;SDS011;58696;52.134;5.500;2023-06-26T13:49:44;1.33;;;0.90;;
71042;SDS011;58696;52.134;5.500;2023-06-26T13:52:13;1.63;;;0.93;;
71042;SDS011;58696;52.134;5.500;2023-06-26T13:54:42;3.05;;;0.90;;
71042;SDS011;58696;52.134;5.500;2023-06-26T13:57:09;2.33;;;0.98;;
71042;SDS011;58696;52.134;5.500;2023-06-26T13:59:37;3.67;;;2.15;;
71042;SDS011;58696;52.134;5.500;2023-06-26T14:02:06;1.85;;;1.10;;
71042;SDS011;58696;52.134;5.500;2023-06-26T14:04:33;2.25;;;1.00;;
71042;SDS011;58696;52.134;5.500;2023-06-26T14:07:00;2.45;;;0.88;;
71042;SDS011;58696;52.134;5.500;2023-06-26T14:09:27;2.75;;;1.02;;
71042;SDS011;58696;52.134;5.500;2023-06-26T14:11:56;2.50;;;0.80;;
71042;SDS011;58696;52.134;5.500;2023-06-26T14:14:27;5.90;;;1.02;;
71042;SDS011;58696;52.134;5.500;2023-06-26T14:16:59;1.85;;;0.98;;
71042;SDS011;58696;52.134;5.500;2023-06-26T14:19:27;2.55;;;0.80;;
71042;SDS011;58696;52.134;5.500;2023-06-26T14:21:56;5.28;;;1.10;;
71042;SDS011;58696;52.134;5.500;2023-06-26T14:24:30;4.40;;;0.80;;
71042;SDS011;58696;52.134;5.500;2023-06-26T14:26:56;3.88;;;0.98;;
71042;SDS011;58696;52.134;5.500;2023-06-26T14:29:30;3.88;;;0.98;;
71042;SDS011;58696;52.134;5.500;2023-06-26T14:31:59;3.25;;;0.90;;
71042;SDS011;58696;52.134;5.500;2023-06-26T14:34:28;1.10;;;0.68;;
71042;SDS011;58696;52.134;5.500;2023-06-26T14:36:55;5.38;;;1.00;;
71042;SDS011;58696;52.134;5.500;2023-06-26T14:44:17;1.40;;;0.90;;
71042;SDS011;58696;52.134;5.500;2023-06-26T14:46:46;1.02;;;0.68;;
71042;SDS011;58696;52.134;5.500;2023-06-26T14:49:18;2.15;;;0.90;;
71042;SDS011;58696;52.134;5.500;2023-06-26T14:51:48;1.38;;;0.65;;
71042;SDS011;58696;52.134;5.500;2023-06-26T14:54:17;1.45;;;0.90;;
71042;SDS011;58696;52.134;5.500;2023-06-26T14:56:43;2.10;;;1.00;;
71042;SDS011;58696;52.134;5.500;2023-06-26T14:59:12;3.55;;;1.17;;
71042;SDS011;58696;52.134;5.500;2023-06-26T15:01:39;2.67;;;1.50;;
71042;SDS011;58696;52.134;5.500;2023-06-26T15:04:08;2.50;;;0.80;;
71042;SDS011;58696;52.134;5.500;2023-06-26T15:06:40;0.98;;;0.70;;
71042;SDS011;58696;52.134;5.500;2023-06-26T15:09:07;2.70;;;1.02;;
71042;SDS011;58696;52.134;5.500;2023-06-26T15:11:36;1.98;;;0.82;;
71042;SDS011;58696;52.134;5.500;2023-06-26T15:14:05;0.80;;;0.63;;
71042;SDS011;58696;52.134;5.500;2023-06-26T15:16:34;4.40;;;0.80;;
71042;SDS011;58696;52.134;5.500;2023-06-26T15:19:00;2.38;;;1.20;;
71042;SDS011;58696;52.134;5.500;2023-06-26T15:21:29;1.83;;;1.10;;
71042;SDS011;58696;52.134;5.500;2023-06-26T15:23:56;2.83;;;0.90;;
71042;SDS011;58696;52.134;5.500;2023-06-26T15:26:25;1.05;;;0.80;;
71042;SDS011;58696;52.134;5.500;2023-06-26T15:28:51;2.00;;;0.90;;
71042;SDS011;58696;52.134;5.500;2023-06-26T15:31:23;8.20;;;1.23;;
71042;SDS011;58696;52.134;5.500;2023-06-26T15:33:54;2.90;;;1.02;;
71042;SDS011;58696;52.134;5.500;2023-06-26T15:36:23;4.40;;;1.17;;
71042;SDS011;58696;52.134;5.500;2023-06-26T15:38:54;5.05;;;0.95;;
71042;SDS011;58696;52.134;5.500;2023-06-26T15:41:24;1.63;;;0.98;;
71042;SDS011;58696;52.134;5.500;2023-06-26T15:43:56;4.05;;;0.82;;